createdAt,value
2018-09-05T00:00:55.942Z,98.54
2018-09-05T00:03:24.860Z,98.78
2018-09-05T00:05:53.754Z,98.93
2018-09-05T00:08:22.638Z,99.60
2018-09-05T00:10:51.539Z,99.92
2018-09-05T00:13:27.874Z,99.23
2018-09-05T00:16:09.183Z,99.15
2018-09-05T00:18:38.089Z,99.35
2018-09-05T00:21:06.982Z,99.04
2018-09-05T00:23:35.930Z,99.25
2018-09-05T00:26:05.107Z,98.96
2018-09-05T00:28:34.043Z,98.95
2018-09-05T00:31:03.057Z,98.65
2018-09-05T00:36:25.118Z,99.19
2018-09-05T00:39:10.486Z,99.40
2018-09-05T00:41:51.776Z,99.61
2018-09-05T00:44:20.716Z,99.13
2018-09-05T00:46:49.610Z,99.00
2018-09-05T00:49:31.965Z,98.92
2018-09-05T00:52:14.352Z,99.11
2018-09-05T00:54:48.189Z,99.17
2018-09-05T00:57:23.218Z,99.22
2018-09-05T00:59:55.782Z,98.87
2018-09-05T01:02:24.650Z,98.86
2018-09-05T01:04:54.585Z,99.14
2018-09-05T01:07:27.683Z,99.28
2018-09-05T01:09:56.566Z,99.44
2018-09-05T01:12:25.969Z,98.94
2018-09-05T01:14:55.384Z,99.29
2018-09-05T01:17:26.316Z,98.72
2018-09-05T01:20:13.741Z,99.41
2018-09-05T01:22:42.635Z,99.18
2018-09-05T01:25:11.529Z,99.41
2018-09-05T01:27:40.455Z,98.97
2018-09-05T01:30:28.677Z,99.27
2018-09-05T01:32:58.894Z,99.14
2018-09-05T01:35:27.979Z,99.30
2018-09-05T01:37:57.218Z,99.43
2018-09-05T01:40:26.256Z,99.32
2018-09-05T01:43:02.879Z,99.55
2018-09-05T01:45:31.799Z,99.71
2018-09-05T01:48:00.713Z,99.67
2018-09-05T01:50:49.473Z,99.84
2018-09-05T01:53:34.842Z,99.33
2018-09-05T01:56:04.930Z,99.58
2018-09-05T01:58:33.824Z,99.33
2018-09-05T02:01:02.851Z,99.88
2018-09-05T02:03:51.690Z,99.90
2018-09-05T02:06:21.686Z,99.74
2018-09-05T02:08:54.147Z,99.83
2018-09-05T02:11:23.025Z,100.00
2018-09-05T02:14:14.698Z,100.00
2018-09-05T02:16:43.816Z,100.00
2018-09-05T02:19:12.716Z,99.85
2018-09-05T02:24:35.910Z,100.00
2018-09-05T02:27:05.068Z,100.00
2018-09-05T02:29:34.002Z,100.00
2018-09-05T02:32:03.291Z,100.00
2018-09-05T02:34:32.162Z,100.00
2018-09-05T02:37:01.067Z,100.00
2018-09-05T02:39:44.208Z,100.00
2018-09-05T02:42:25.401Z,99.88
2018-09-05T02:44:54.408Z,100.00
2018-09-05T02:47:23.249Z,100.00
2018-09-05T02:50:14.556Z,99.66
2018-09-05T02:52:43.481Z,100.00
2018-09-05T02:55:16.584Z,100.00
2018-09-05T02:57:45.463Z,100.00
2018-09-05T03:00:14.365Z,100.00
2018-09-05T03:02:45.281Z,100.00
2018-09-05T03:05:14.190Z,100.00
2018-09-05T03:07:43.080Z,100.00
2018-09-05T03:10:18.009Z,100.00
2018-09-05T03:12:46.896Z,100.00
2018-09-05T03:15:19.947Z,100.00
2018-09-05T03:17:48.905Z,100.00
2018-09-05T03:20:17.829Z,100.00
2018-09-05T03:22:50.168Z,100.00
2018-09-05T03:28:26.122Z,100.00
2018-09-05T03:30:55.026Z,100.00
2018-09-05T03:33:23.918Z,100.00
2018-09-05T03:35:52.884Z,100.00
2018-09-05T03:38:21.816Z,100.00
2018-09-05T03:40:50.736Z,100.00
2018-09-05T03:43:23.973Z,100.00
2018-09-05T03:45:57.915Z,100.00
2018-09-05T03:48:26.854Z,100.00
2018-09-05T03:51:02.047Z,100.00
2018-09-05T03:53:31.019Z,100.00
2018-09-05T03:56:03.901Z,100.00
2018-09-05T03:58:38.677Z,100.00
2018-09-05T04:01:08.607Z,100.00
2018-09-05T04:03:37.493Z,100.00
2018-09-05T04:06:08.503Z,100.00
2018-09-05T04:08:47.098Z,100.00
2018-09-05T04:11:23.560Z,100.00
2018-09-05T04:13:59.473Z,99.88
2018-09-05T04:16:28.382Z,100.00
2018-09-05T04:19:05.261Z,100.00
2018-09-05T04:21:34.257Z,100.00
2018-09-05T04:24:09.409Z,100.00
2018-09-05T04:26:50.410Z,100.00
2018-09-05T04:29:41.559Z,100.00
2018-09-05T04:32:11.517Z,100.00
2018-09-05T04:34:41.530Z,100.00
2018-09-05T04:37:10.516Z,100.00
2018-09-05T04:39:43.317Z,100.00
2018-09-05T04:45:06.177Z,100.00
2018-09-05T04:47:48.218Z,100.00
2018-09-05T04:50:25.432Z,100.00
2018-09-05T04:52:54.421Z,100.00
2018-09-05T04:55:23.312Z,100.00
2018-09-05T04:57:52.288Z,100.00
2018-09-05T05:00:21.183Z,100.00
2018-09-05T05:02:50.223Z,100.00
2018-09-05T05:05:19.138Z,100.00
2018-09-05T05:07:50.059Z,100.00
2018-09-05T05:10:28.806Z,100.00
2018-09-05T05:12:57.704Z,100.00
2018-09-05T05:15:26.608Z,100.00
2018-09-05T05:17:59.304Z,100.00
2018-09-05T05:20:28.220Z,100.00
2018-09-05T05:23:09.477Z,100.00
2018-09-05T05:25:40.523Z,100.00
2018-09-05T05:28:21.779Z,100.00
2018-09-05T05:30:57.976Z,100.00
2018-09-05T05:33:29.248Z,100.00
2018-09-05T05:36:34.588Z,100.00
2018-09-05T05:39:16.860Z,100.00
2018-09-05T05:41:45.813Z,100.00
2018-09-05T05:44:18.572Z,100.00
2018-09-05T05:47:05.144Z,100.00
2018-09-05T05:49:39.883Z,100.00
2018-09-05T05:52:15.179Z,100.00
2018-09-05T05:57:39.209Z,100.00
2018-09-05T06:00:09.172Z,100.00
2018-09-05T06:02:44.969Z,100.00
2018-09-05T06:05:13.892Z,100.00
2018-09-05T06:07:42.876Z,99.81
2018-09-05T06:10:12.795Z,99.89
2018-09-05T06:12:51.226Z,99.67
2018-09-05T06:15:20.097Z,99.50
2018-09-05T06:17:49.130Z,98.80
2018-09-05T06:20:21.312Z,98.84
2018-09-05T06:23:00.633Z,98.52
2018-09-05T06:25:29.545Z,99.17
2018-09-05T06:28:05.857Z,98.91
2018-09-05T06:30:54.220Z,98.85
2018-09-05T06:33:23.111Z,98.89
2018-09-05T06:35:52.016Z,98.42
2018-09-05T06:38:20.919Z,98.68
2018-09-05T06:40:49.879Z,98.45
2018-09-05T06:43:18.884Z,98.44
2018-09-05T06:45:48.625Z,97.86
2018-09-05T06:48:29.865Z,97.26
2018-09-05T06:51:02.988Z,96.93
2018-09-05T06:53:31.899Z,96.66
2018-09-05T06:56:00.809Z,96.14
2018-09-05T06:58:37.078Z,96.26
2018-09-05T07:01:07.016Z,95.73
2018-09-05T07:03:42.517Z,95.23
2018-09-05T07:06:17.119Z,94.77
2018-09-05T07:08:46.013Z,94.79
2018-09-05T07:11:14.912Z,92.93
2018-09-05T07:13:43.807Z,92.88
2018-09-05T07:16:13.446Z,92.56
2018-09-05T07:18:47.419Z,91.56
2018-09-05T07:21:16.336Z,92.43
2018-09-05T07:23:45.243Z,92.21
2018-09-05T07:26:18.658Z,92.46
2018-09-05T07:28:47.510Z,92.08
2018-09-05T07:31:16.393Z,92.33
2018-09-05T07:33:51.263Z,92.26
2018-09-05T07:36:20.285Z,91.29
2018-09-05T07:38:53.640Z,91.08
2018-09-05T07:41:22.625Z,90.75
2018-09-05T07:43:51.596Z,90.13
2018-09-05T07:46:24.306Z,89.89
2018-09-05T07:48:53.196Z,89.56
2018-09-05T07:51:22.090Z,90.17
2018-09-05T07:54:04.326Z,89.80
2018-09-05T07:56:33.694Z,89.45
2018-09-05T07:59:18.910Z,88.05
2018-09-05T08:01:52.725Z,87.91
2018-09-05T08:04:23.732Z,87.70
2018-09-05T08:06:52.734Z,87.57
2018-09-05T08:12:22.216Z,85.65
2018-09-05T08:14:51.143Z,85.38
2018-09-05T08:17:20.057Z,84.98
2018-09-05T08:19:49.056Z,84.81
2018-09-05T08:22:19.043Z,83.95
2018-09-05T08:24:48.365Z,84.14
2018-09-05T08:27:34.094Z,84.30
2018-09-05T08:30:03.091Z,84.04
2018-09-05T08:32:35.692Z,84.28
2018-09-05T08:35:09.772Z,83.54
2018-09-05T08:37:38.672Z,82.61
2018-09-05T08:40:10.860Z,82.46
2018-09-05T08:42:39.802Z,82.21
2018-09-05T08:45:11.947Z,82.06
2018-09-05T08:47:46.566Z,82.16
2018-09-05T08:50:23.218Z,82.11
2018-09-05T08:53:10.201Z,82.19
2018-09-05T08:55:57.926Z,82.05
2018-09-05T08:58:27.875Z,81.08
2018-09-05T09:01:15.032Z,80.75
2018-09-05T09:03:47.483Z,80.52
2018-09-05T09:06:16.471Z,80.86
2018-09-05T09:08:51.777Z,80.05
2018-09-05T09:11:27.573Z,79.13
2018-09-05T09:13:56.559Z,78.51
2018-09-05T09:16:33.270Z,78.91
2018-09-05T09:19:07.841Z,79.27
2018-09-05T09:21:40.704Z,78.28
2018-09-05T09:24:10.841Z,78.49
2018-09-05T09:26:44.588Z,77.87
2018-09-05T09:29:13.561Z,78.21
2018-09-05T09:31:42.531Z,78.34
2018-09-05T09:34:11.475Z,77.91
2018-09-05T09:36:47.628Z,77.40
2018-09-05T09:39:18.584Z,77.01
2018-09-05T09:41:52.904Z,76.97
2018-09-05T09:44:21.873Z,77.06
2018-09-05T09:46:53.158Z,76.89
2018-09-05T09:49:26.597Z,76.31
2018-09-05T09:52:05.930Z,76.12
2018-09-05T09:54:52.654Z,75.50
2018-09-05T09:57:21.837Z,74.55
2018-09-05T09:59:56.772Z,76.56
2018-09-05T10:02:32.084Z,76.45
2018-09-05T10:05:07.304Z,75.75
2018-09-05T10:07:41.704Z,75.40
2018-09-05T10:10:16.281Z,75.10
2018-09-05T10:12:50.251Z,72.82
2018-09-05T10:15:26.792Z,72.61
2018-09-05T10:18:01.201Z,72.69
2018-09-05T10:20:35.146Z,72.37
2018-09-05T10:23:08.309Z,71.97
2018-09-05T10:25:38.210Z,72.42
2018-09-05T10:28:13.544Z,71.54
2018-09-05T10:30:42.431Z,71.44
2018-09-05T10:33:11.358Z,71.18
2018-09-05T10:35:43.652Z,71.39
2018-09-05T10:38:15.782Z,71.04
2018-09-05T10:40:45.085Z,69.51
2018-09-05T10:43:13.980Z,68.63
2018-09-05T10:45:42.874Z,68.46
2018-09-05T10:48:11.976Z,68.36
2018-09-05T10:50:40.951Z,67.27
2018-09-05T10:53:10.030Z,67.51
2018-09-05T10:55:49.552Z,66.97
2018-09-05T10:58:18.447Z,66.70
2018-09-05T11:00:47.332Z,66.56
2018-09-05T11:03:23.153Z,66.87
2018-09-05T11:05:52.097Z,64.82
2018-09-05T11:08:35.394Z,65.26
2018-09-05T11:11:09.420Z,65.40
2018-09-05T11:13:43.553Z,64.35
2018-09-05T11:16:13.564Z,64.03
2018-09-05T11:18:42.592Z,63.93
2018-09-05T11:21:11.684Z,63.20
2018-09-05T11:23:40.774Z,62.58
2018-09-05T11:26:09.945Z,63.13
2018-09-05T11:28:38.816Z,63.14
2018-09-05T11:31:08.274Z,63.12
2018-09-05T11:33:43.027Z,62.44
2018-09-05T11:36:16.731Z,61.19
2018-09-05T11:38:47.682Z,60.82
2018-09-05T11:41:16.671Z,60.21
2018-09-05T11:43:45.599Z,59.53
2018-09-05T11:46:17.964Z,59.34
2018-09-05T11:48:46.951Z,59.16
2018-09-05T11:51:26.529Z,59.64
2018-09-05T11:54:11.846Z,58.80
2018-09-05T11:56:41.819Z,59.36
2018-09-05T11:59:12.775Z,58.20
2018-09-05T12:01:49.338Z,58.47
2018-09-05T12:04:19.215Z,57.85
2018-09-05T12:06:48.335Z,57.99
2018-09-05T12:09:17.599Z,55.98
2018-09-05T12:11:54.837Z,55.97
2018-09-05T12:14:25.777Z,57.92
2018-09-05T12:16:54.669Z,57.20
2018-09-05T12:19:23.673Z,56.06
2018-09-05T12:21:52.619Z,56.28
2018-09-05T12:24:21.518Z,55.65
2018-09-05T12:27:00.687Z,55.34
2018-09-05T12:29:32.998Z,56.18
2018-09-05T12:32:02.003Z,55.21
2018-09-05T12:34:35.201Z,54.67
2018-09-05T12:37:10.737Z,54.37
2018-09-05T12:39:46.463Z,53.76
2018-09-05T12:42:15.320Z,54.16
2018-09-05T12:44:49.275Z,53.26
2018-09-05T12:47:18.194Z,53.84
2018-09-05T12:49:48.141Z,53.72
2018-09-05T12:52:17.228Z,53.50
2018-09-05T12:54:47.302Z,53.38
2018-09-05T12:57:20.577Z,53.59
2018-09-05T12:59:50.588Z,54.40
2018-09-05T13:02:20.552Z,53.97
2018-09-05T13:04:49.530Z,54.29
2018-09-05T13:07:18.655Z,54.33
2018-09-05T13:09:49.049Z,54.16
2018-09-05T13:12:19.085Z,55.19
2018-09-05T13:14:48.055Z,55.68
2018-09-05T13:17:17.019Z,55.54
2018-09-05T13:19:45.902Z,55.62
2018-09-05T13:22:14.816Z,54.50
2018-09-05T13:24:45.875Z,54.83
2018-09-05T13:27:18.692Z,53.41
2018-09-05T13:29:47.713Z,53.38
2018-09-05T13:32:16.733Z,53.22
2018-09-05T13:34:49.782Z,52.66
2018-09-05T13:37:18.842Z,52.52
2018-09-05T13:39:47.746Z,52.66
2018-09-05T13:42:17.699Z,52.71
2018-09-05T13:44:46.702Z,51.55
2018-09-05T13:47:15.684Z,51.42
2018-09-05T13:49:45.915Z,52.23
2018-09-05T13:52:18.146Z,50.86
2018-09-05T13:54:47.655Z,51.13
2018-09-05T13:57:18.813Z,51.06
2018-09-05T13:59:48.013Z,51.58
2018-09-05T14:02:19.404Z,50.71
2018-09-05T14:04:50.945Z,51.14
2018-09-05T14:07:19.880Z,51.42
2018-09-05T14:09:50.838Z,51.56
2018-09-05T14:12:20.889Z,52.15
2018-09-05T14:14:50.897Z,52.17
2018-09-05T14:17:25.174Z,50.89
2018-09-05T14:19:55.127Z,51.00
2018-09-05T14:22:24.131Z,50.57
2018-09-05T14:24:57.839Z,51.09
2018-09-05T14:27:26.925Z,50.40
2018-09-05T14:29:56.893Z,50.68
2018-09-05T14:32:27.900Z,50.24
2018-09-05T14:34:57.976Z,50.02
2018-09-05T14:37:36.955Z,50.91
2018-09-05T14:40:06.938Z,50.13
2018-09-05T14:42:49.366Z,49.05
2018-09-05T14:45:22.688Z,48.62
2018-09-05T14:47:52.717Z,49.34
2018-09-05T14:50:25.295Z,48.76
2018-09-05T14:52:55.234Z,49.17
2018-09-05T14:55:24.273Z,48.97
2018-09-05T14:57:54.259Z,49.33
2018-09-05T15:00:25.177Z,48.96
2018-09-05T15:02:57.147Z,48.39
2018-09-05T15:05:27.424Z,48.85
2018-09-05T15:08:06.907Z,48.51
2018-09-05T15:10:41.934Z,47.49
2018-09-05T15:13:11.999Z,47.15
2018-09-05T15:15:40.961Z,46.78
2018-09-05T15:18:11.957Z,47.35
2018-09-05T15:20:41.932Z,47.91
2018-09-05T15:23:12.418Z,48.43
2018-09-05T15:25:42.760Z,48.90
2018-09-05T15:28:12.685Z,50.77
2018-09-05T15:30:48.161Z,51.84
2018-09-05T15:33:18.136Z,52.88
2018-09-05T15:35:51.847Z,53.08
2018-09-05T15:38:20.843Z,53.61
2018-09-05T15:40:50.908Z,54.19
2018-09-05T15:43:21.889Z,53.85
2018-09-05T15:45:52.808Z,54.30
2018-09-05T15:48:21.818Z,54.15
2018-09-05T15:50:55.792Z,54.13
2018-09-05T15:53:25.024Z,54.30
2018-09-05T15:55:56.294Z,53.83
2018-09-05T15:58:25.317Z,53.72
2018-09-05T16:01:01.703Z,54.15
2018-09-05T16:03:30.675Z,54.26
2018-09-05T16:05:59.743Z,54.81
2018-09-05T16:08:32.340Z,54.41
2018-09-05T16:11:14.092Z,54.12
2018-09-05T16:13:48.167Z,53.59
2018-09-05T16:16:18.332Z,52.76
2018-09-05T16:18:49.745Z,52.08
2018-09-05T16:21:19.775Z,52.22
2018-09-05T16:23:50.081Z,51.84
2018-09-05T16:26:27.117Z,51.37
2018-09-05T16:28:57.106Z,51.33
2018-09-05T16:31:30.413Z,51.08
2018-09-05T16:34:01.316Z,51.29
2018-09-05T16:36:30.276Z,51.52
2018-09-05T16:39:09.561Z,51.34
2018-09-05T16:41:41.315Z,51.46
2018-09-05T16:44:10.948Z,52.33
2018-09-05T16:46:40.194Z,52.22
2018-09-05T16:49:10.168Z,52.62
2018-09-05T16:51:39.149Z,52.37
2018-09-05T16:54:10.119Z,52.94
2018-09-05T16:56:41.095Z,53.95
2018-09-05T16:59:10.031Z,54.39
2018-09-05T17:01:41.013Z,54.68
2018-09-05T17:04:13.773Z,54.75
2018-09-05T17:06:47.602Z,55.29
2018-09-05T17:09:21.841Z,55.83
2018-09-05T17:11:50.860Z,55.92
2018-09-05T17:14:20.823Z,56.66
2018-09-05T17:16:50.874Z,56.77
2018-09-05T17:19:25.934Z,57.31
2018-09-05T17:21:56.889Z,57.25
2018-09-05T17:24:26.923Z,57.38
2018-09-05T17:26:55.913Z,57.79
2018-09-05T17:29:24.959Z,58.16
2018-09-05T17:31:54.903Z,57.58
2018-09-05T17:34:26.007Z,58.19
2018-09-05T17:36:55.976Z,58.29
2018-09-05T17:39:28.402Z,58.83
2018-09-05T17:42:04.727Z,59.54
2018-09-05T17:44:38.345Z,59.55
2018-09-05T17:47:07.325Z,59.64
2018-09-05T17:49:40.491Z,60.01
2018-09-05T17:52:18.927Z,60.52
2018-09-05T17:54:53.233Z,59.61
2018-09-05T17:57:22.266Z,60.01
2018-09-05T17:59:51.205Z,60.34
2018-09-05T18:02:20.538Z,59.42
2018-09-05T18:04:49.463Z,60.51
2018-09-05T18:07:18.383Z,61.47
2018-09-05T18:09:47.432Z,61.41
2018-09-05T18:12:16.354Z,61.96
2018-09-05T18:14:47.339Z,62.67
2018-09-05T18:17:17.474Z,62.05
2018-09-05T18:19:50.734Z,62.18
2018-09-05T18:22:19.702Z,62.75
2018-09-05T18:24:48.899Z,62.62
2018-09-05T18:27:18.834Z,63.07
2018-09-05T18:29:47.838Z,63.03
2018-09-05T18:32:17.806Z,63.04
2018-09-05T18:34:48.323Z,62.82
2018-09-05T18:37:17.273Z,62.83
2018-09-05T18:39:48.206Z,63.25
2018-09-05T18:42:19.236Z,63.19
2018-09-05T18:44:49.229Z,63.21
2018-09-05T18:47:22.484Z,64.00
2018-09-05T18:49:55.321Z,63.58
2018-09-05T18:52:24.325Z,63.90
2018-09-05T18:55:04.566Z,64.29
2018-09-05T18:57:39.277Z,64.31
2018-09-05T19:00:21.892Z,64.93
2018-09-05T19:03:07.385Z,64.96
2018-09-05T19:05:40.975Z,65.10
2018-09-05T19:08:09.960Z,65.52
2018-09-05T19:10:38.905Z,65.61
2018-09-05T19:13:07.870Z,65.22
2018-09-05T19:15:49.243Z,65.15
2018-09-05T19:18:28.112Z,65.40
2018-09-05T19:21:01.417Z,65.26
2018-09-05T19:23:55.146Z,65.33
2018-09-05T19:26:31.332Z,65.64
2018-09-05T19:29:10.942Z,65.76
2018-09-05T19:31:47.648Z,65.97
2018-09-05T19:34:24.456Z,66.40
2018-09-05T19:36:53.432Z,66.42
2018-09-05T19:39:22.393Z,66.87
2018-09-05T19:41:54.541Z,67.23
2018-09-05T19:44:46.369Z,66.44
2018-09-05T19:47:15.398Z,66.71
2018-09-05T19:49:48.134Z,66.76
2018-09-05T19:52:35.163Z,66.80
2018-09-05T19:57:58.698Z,66.63
2018-09-05T20:00:29.600Z,66.60
2018-09-05T20:02:58.852Z,66.94
2018-09-05T20:05:27.790Z,66.64
2018-09-05T20:08:00.260Z,66.52
2018-09-05T20:10:30.241Z,67.12
2018-09-05T20:13:02.979Z,67.40
2018-09-05T20:15:40.254Z,66.39
2018-09-05T20:21:02.970Z,67.47
2018-09-05T20:23:35.504Z,67.74
2018-09-05T20:26:21.307Z,67.09
2018-09-05T20:29:08.346Z,64.96
2018-09-05T20:31:38.326Z,65.36
2018-09-05T20:34:13.258Z,66.10
2018-09-05T20:36:42.203Z,65.79
2018-09-05T20:42:14.818Z,66.04
2018-09-05T20:44:50.519Z,63.96
2018-09-05T20:47:19.573Z,63.92
2018-09-05T20:49:48.506Z,63.88
2018-09-05T20:52:22.442Z,65.43
2018-09-05T20:54:51.300Z,65.74
2018-09-05T21:00:23.674Z,62.79
2018-09-05T21:02:52.605Z,63.88
2018-09-05T21:05:22.615Z,64.18
2018-09-05T21:07:51.502Z,63.43
2018-09-05T21:10:20.362Z,63.98
2018-09-05T21:12:50.066Z,64.19
2018-09-05T21:15:29.081Z,65.16
2018-09-05T21:18:07.691Z,65.23
2018-09-05T21:20:36.570Z,63.54
2018-09-05T21:23:15.429Z,63.59
2018-09-05T21:25:54.379Z,64.21
2018-09-05T21:28:33.413Z,63.25
2018-09-05T21:31:02.450Z,63.07
2018-09-05T21:33:38.356Z,63.18
2018-09-05T21:36:24.399Z,64.02
2018-09-05T21:41:50.123Z,63.27
2018-09-05T21:44:25.525Z,62.69
2018-09-05T21:46:54.420Z,62.13
2018-09-05T21:49:35.343Z,62.24
2018-09-05T21:52:10.593Z,62.20
2018-09-05T21:57:38.582Z,60.99
2018-09-05T22:00:10.749Z,62.11
2018-09-05T22:02:39.663Z,61.73
2018-09-05T22:05:08.723Z,60.70
2018-09-05T22:10:32.160Z,59.74
2018-09-05T22:13:06.594Z,59.92
2018-09-05T22:15:54.067Z,60.05
2018-09-05T22:18:25.091Z,59.97
2018-09-05T22:21:01.931Z,59.75
2018-09-05T22:26:24.338Z,60.01
2018-09-05T22:28:59.180Z,60.43
2018-09-05T22:31:32.346Z,60.41
2018-09-05T22:34:01.243Z,59.82
2018-09-05T22:36:30.448Z,59.76
2018-09-05T22:39:02.620Z,60.10
2018-09-05T22:41:43.890Z,60.53
2018-09-05T22:45:21.575Z,60.27
2018-09-05T22:48:05.611Z,60.50
2018-09-05T22:51:22.402Z,60.54
2018-09-05T22:57:08.138Z,60.65
2018-09-05T22:59:50.631Z,60.58
2018-09-05T23:04:40.519Z,61.19
2018-09-05T23:07:22.650Z,60.73
2018-09-05T23:10:02.795Z,60.50
2018-09-05T23:15:38.045Z,60.38
2018-09-05T23:18:49.591Z,60.44
2018-09-05T23:21:26.737Z,60.97
2018-09-05T23:24:09.905Z,61.17
2018-09-05T23:26:42.669Z,61.22
2018-09-05T23:29:12.959Z,61.42
2018-09-05T23:31:41.868Z,62.11
2018-09-05T23:34:14.178Z,62.93
2018-09-05T23:36:48.808Z,63.73
2018-09-05T23:39:17.729Z,63.99
2018-09-05T23:41:59.284Z,64.35
2018-09-05T23:44:32.280Z,63.86
2018-09-05T23:47:01.180Z,64.72
2018-09-05T23:49:32.113Z,64.90
2018-09-05T23:54:55.589Z,65.04
2018-09-05T23:57:44.027Z,65.94
